sensor_id;sensor_type;location;lat;lon;timestamp;pressure;altitude;pressure_sealevel;temperature;humidity
76358;BME280;65185;21.060;105.826;2023-04-01T00:01:01;101238.09;;;20.62;100.00
76358;BME280;65185;21.060;105.826;2023-04-01T00:03:29;101234.59;;;20.61;100.00
76358;BME280;65185;21.060;105.826;2023-04-01T00:05:57;101235.19;;;20.58;100.00
76358;BME280;65185;21.060;105.826;2023-04-01T00:08:25;101237.91;;;20.58;100.00
76358;BME280;65185;21.060;105.826;2023-04-01T00:10:52;101246.91;;;20.59;100.00
76358;BME280;65185;21.060;105.826;2023-04-01T00:13:20;101251.56;;;20.58;100.00
76358;BME280;65185;21.060;105.826;2023-04-01T00:15:47;101258.66;;;20.59;100.00
76358;BME280;65185;21.060;105.826;2023-04-01T00:18:14;101255.09;;;20.59;100.00
76358;BME280;65185;21.060;105.826;2023-04-01T00:20:47;101256.41;;;20.61;100.00
76358;BME280;65185;21.060;105.826;2023-04-01T00:23:14;101255.63;;;20.61;100.00
76358;BME280;65185;21.060;105.826;2023-04-01T00:25:41;101260.25;;;20.60;100.00
76358;BME280;65185;21.060;105.826;2023-04-01T00:28:08;101257.84;;;20.59;100.00
76358;BME280;65185;21.060;105.826;2023-04-01T00:30:36;101266.03;;;20.59;100.00
76358;BME280;65185;21.060;105.826;2023-04-01T00:33:03;101265.72;;;20.60;100.00
76358;BME280;65185;21.060;105.826;2023-04-01T00:35:29;101275.53;;;20.61;100.00
76358;BME280;65185;21.060;105.826;2023-04-01T00:37:56;101271.66;;;20.62;100.00
76358;BME280;65185;21.060;105.826;2023-04-01T00:40:29;101268.94;;;20.62;100.00
76358;BME280;65185;21.060;105.826;2023-04-01T00:42:56;101277.91;;;20.63;100.00
76358;BME280;65185;21.060;105.826;2023-04-01T00:45:32;101274.09;;;20.64;100.00
76358;BME280;65185;21.060;105.826;2023-04-01T00:48:03;101269.44;;;20.64;100.00
76358;BME280;65185;21.060;105.826;2023-04-01T00:50:33;101273.78;;;20.65;100.00
76358;BME280;65185;21.060;105.826;2023-04-01T00:53:01;101283.59;;;20.66;100.00
76358;BME280;65185;21.060;105.826;2023-04-01T00:55:32;101293.69;;;20.66;100.00
76358;BME280;65185;21.060;105.826;2023-04-01T00:58:00;101289.34;;;20.65;100.00
76358;BME280;65185;21.060;105.826;2023-04-01T01:00:27;101292.69;;;20.62;100.00
76358;BME280;65185;21.060;105.826;2023-04-01T01:02:54;101290.28;;;20.60;100.00
76358;BME280;65185;21.060;105.826;2023-04-01T01:05:27;101297.97;;;20.58;100.00
76358;BME280;65185;21.060;105.826;2023-04-01T01:10:38;101298.13;;;20.62;100.00
76358;BME280;65185;21.060;105.826;2023-04-01T01:37:22;101317.94;;;20.67;100.00
76358;BME280;65185;21.060;105.826;2023-04-01T01:39:55;101303.97;;;20.69;100.00
76358;BME280;65185;21.060;105.826;2023-04-01T01:42:25;101301.75;;;20.71;100.00
76358;BME280;65185;21.060;105.826;2023-04-01T01:44:51;101309.66;;;20.72;100.00
76358;BME280;65185;21.060;105.826;2023-04-01T01:47:19;101312.03;;;20.74;100.00
76358;BME280;65185;21.060;105.826;2023-04-01T01:49:47;101321.03;;;20.74;100.00
76358;BME280;65185;21.060;105.826;2023-04-01T01:52:14;101319.94;;;20.75;100.00
76358;BME280;65185;21.060;105.826;2023-04-01T01:58:26;101318.53;;;20.78;100.00
76358;BME280;65185;21.060;105.826;2023-04-01T02:01:02;101318.53;;;20.78;100.00
76358;BME280;65185;21.060;105.826;2023-04-01T02:03:33;101322.06;;;20.79;100.00
76358;BME280;65185;21.060;105.826;2023-04-01T02:06:03;101319.34;;;20.79;100.00
76358;BME280;65185;21.060;105.826;2023-04-01T02:08:44;101321.72;;;20.80;100.00
76358;BME280;65185;21.060;105.826;2023-04-01T02:11:14;101325.56;;;20.79;100.00
76358;BME280;65185;21.060;105.826;2023-04-01T02:13:54;101329.09;;;20.80;100.00
76358;BME280;65185;21.060;105.826;2023-04-01T02:19:09;101326.38;;;20.80;100.00
76358;BME280;65185;21.060;105.826;2023-04-01T02:21:37;101317.09;;;20.81;100.00
76358;BME280;65185;21.060;105.826;2023-04-01T02:24:08;101309.41;;;20.83;100.00
76358;BME280;65185;21.060;105.826;2023-04-01T02:26:36;101311.31;;;20.82;100.00
76358;BME280;65185;21.060;105.826;2023-04-01T02:29:04;101310.22;;;20.83;100.00
76358;BME280;65185;21.060;105.826;2023-04-01T02:31:32;101308.28;;;20.84;100.00
76358;BME280;65185;21.060;105.826;2023-04-01T02:34:00;101318.06;;;20.85;100.00
76358;BME280;65185;21.060;105.826;2023-04-01T02:36:26;101316.47;;;20.84;100.00
76358;BME280;65185;21.060;105.826;2023-04-01T02:38:54;101315.66;;;20.83;100.00
76358;BME280;65185;21.060;105.826;2023-04-01T02:41:22;101323.84;;;20.83;100.00
76358;BME280;65185;21.060;105.826;2023-04-01T02:43:48;101327.56;;;20.87;100.00
76358;BME280;65185;21.060;105.826;2023-04-01T02:46:15;101326.75;;;20.87;100.00
76358;BME280;65185;21.060;105.826;2023-04-01T02:48:41;101327.56;;;20.87;100.00
76358;BME280;65185;21.060;105.826;2023-04-01T02:51:08;101317.47;;;20.88;100.00
76358;BME280;65185;21.060;105.826;2023-04-01T02:53:35;101322.13;;;20.87;100.00
76358;BME280;65185;21.060;105.826;2023-04-01T02:56:01;101337.38;;;20.88;100.00
76358;BME280;65185;21.060;105.826;2023-04-01T02:58:28;101336.56;;;20.88;100.00
76358;BME280;65185;21.060;105.826;2023-04-01T03:00:54;101332.72;;;20.89;100.00
76358;BME280;65185;21.060;105.826;2023-04-01T03:03:21;101335.47;;;20.89;100.00
76358;BME280;65185;21.060;105.826;2023-04-01T03:05:47;101328.88;;;20.90;100.00
76358;BME280;65185;21.060;105.826;2023-04-01T03:08:14;101316.81;;;20.91;100.00
76358;BME280;65185;21.060;105.826;2023-04-01T03:10:40;101311.38;;;20.91;100.00
76358;BME280;65185;21.060;105.826;2023-04-01T03:13:07;101312.97;;;20.92;100.00
76358;BME280;65185;21.060;105.826;2023-04-01T03:15:33;101314.59;;;20.93;100.00
76358;BME280;65185;21.060;105.826;2023-04-01T03:18:00;101304.50;;;20.93;100.00
76358;BME280;65185;21.060;105.826;2023-04-01T03:20:26;101306.91;;;20.95;100.00
76358;BME280;65185;21.060;105.826;2023-04-01T03:22:53;101295.19;;;20.94;100.00
76358;BME280;65185;21.060;105.826;2023-04-01T03:25:19;101298.41;;;20.96;100.00
76358;BME280;65185;21.060;105.826;2023-04-01T03:27:50;101288.28;;;20.97;100.00
76358;BME280;65185;21.060;105.826;2023-04-01T03:30:16;101289.09;;;20.97;100.00
76358;BME280;65185;21.060;105.826;2023-04-01T03:32:43;101280.59;;;20.99;100.00
76358;BME280;65185;21.060;105.826;2023-04-01T03:35:09;101284.94;;;21.00;100.00
76358;BME280;65185;21.060;105.826;2023-04-01T03:37:36;101272.09;;;21.00;100.00
76358;BME280;65185;21.060;105.826;2023-04-01T03:40:03;101260.03;;;21.01;100.00
76358;BME280;65185;21.060;105.826;2023-04-01T03:42:30;101242.53;;;21.02;100.00
76358;BME280;65185;21.060;105.826;2023-04-01T03:44:58;101240.31;;;21.04;100.00
76358;BME280;65185;21.060;105.826;2023-04-01T03:47:24;101244.31;;;21.07;100.00
76358;BME280;65185;21.060;105.826;2023-04-01T03:49:51;101240.47;;;21.08;100.00
76358;BME280;65185;21.060;105.826;2023-04-01T03:52:17;101242.91;;;21.09;100.00
76358;BME280;65185;21.060;105.826;2023-04-01T03:54:43;101242.09;;;21.09;100.00
76358;BME280;65185;21.060;105.826;2023-04-01T03:57:10;101233.91;;;21.09;100.00
76358;BME280;65185;21.060;105.826;2023-04-01T03:59:36;101217.19;;;21.10;100.00
76358;BME280;65185;21.060;105.826;2023-04-01T04:02:03;101205.97;;;21.12;100.00
76358;BME280;65185;21.060;105.826;2023-04-01T04:04:30;101197.44;;;21.13;100.00
76358;BME280;65185;21.060;105.826;2023-04-01T04:06:57;101197.44;;;21.13;100.00
76358;BME280;65185;21.060;105.826;2023-04-01T04:09:24;101208.09;;;21.15;100.00
76358;BME280;65185;21.060;105.826;2023-04-01T04:11:51;101212.75;;;21.14;100.00
76358;BME280;65185;21.060;105.826;2023-04-01T04:14:17;101215.47;;;21.14;100.00
76358;BME280;65185;21.060;105.826;2023-04-01T04:16:44;101210.81;;;21.15;100.00
76358;BME280;65185;21.060;105.826;2023-04-01T04:19:10;101209.19;;;21.14;100.00
76358;BME280;65185;21.060;105.826;2023-04-01T04:21:37;101199.91;;;21.15;100.00
76358;BME280;65185;21.060;105.826;2023-04-01T04:24:03;101199.09;;;21.14;100.00
76358;BME280;65185;21.060;105.826;2023-04-01T04:26:30;101199.91;;;21.15;100.00
76358;BME280;65185;21.060;105.826;2023-04-01T04:28:56;101206.44;;;21.14;100.00
76358;BME280;65185;21.060;105.826;2023-04-01T04:31:24;101204.81;;;21.13;100.00
76358;BME280;65185;21.060;105.826;2023-04-01T04:33:51;101205.97;;;21.12;100.00
76358;BME280;65185;21.060;105.826;2023-04-01T04:36:20;101203.25;;;21.12;100.00
76358;BME280;65185;21.060;105.826;2023-04-01T04:38:47;101201.63;;;21.11;100.00
76358;BME280;65185;21.060;105.826;2023-04-01T04:41:38;101193.09;;;21.12;100.00
76358;BME280;65185;21.060;105.826;2023-04-01T04:44:05;101178.66;;;21.12;100.00
76358;BME280;65185;21.060;105.826;2023-04-01T04:46:32;101172.88;;;21.13;100.00
76358;BME280;65185;21.060;105.826;2023-04-01T04:48:58;101158.13;;;21.14;100.00
76358;BME280;65185;21.060;105.826;2023-04-01T04:51:25;101149.94;;;21.14;100.00
76358;BME280;65185;21.060;105.826;2023-04-01T04:53:52;101142.22;;;21.17;100.00
76358;BME280;65185;21.060;105.826;2023-04-01T04:56:20;101120.03;;;21.18;100.00
76358;BME280;65185;21.060;105.826;2023-04-01T04:58:48;101108.50;;;21.21;100.00
76358;BME280;65185;21.060;105.826;2023-04-01T05:01:16;101111.72;;;21.23;100.00
76358;BME280;65185;21.060;105.826;2023-04-01T05:03:43;101112.50;;;21.24;100.00
76358;BME280;65185;21.060;105.826;2023-04-01T05:06:12;101108.19;;;21.23;100.00
76358;BME280;65185;21.060;105.826;2023-04-01T05:08:40;101098.06;;;21.23;100.00
76358;BME280;65185;21.060;105.826;2023-04-01T05:11:10;101089.06;;;21.23;100.00
76358;BME280;65185;21.060;105.826;2023-04-01T05:13:37;101079.56;;;21.20;100.00
76358;BME280;65185;21.060;105.826;2023-04-01T05:16:11;101070.88;;;21.18;100.00
76358;BME280;65185;21.060;105.826;2023-04-01T05:18:38;101076.34;;;21.18;100.00
76358;BME280;65185;21.060;105.826;2023-04-01T05:21:08;101068.47;;;21.17;100.00
76358;BME280;65185;21.060;105.826;2023-04-01T05:23:35;101066.06;;;21.15;100.00
76358;BME280;65185;21.060;105.826;2023-04-01T05:26:06;101060.59;;;21.15;100.00
76358;BME280;65185;21.060;105.826;2023-04-01T05:28:34;101057.88;;;21.15;100.00
76358;BME280;65185;21.060;105.826;2023-04-01T05:31:04;101039.84;;;21.14;100.00
76358;BME280;65185;21.060;105.826;2023-04-01T05:33:31;101040.66;;;21.14;100.00
76358;BME280;65185;21.060;105.826;2023-04-01T05:36:06;101027.81;;;21.15;100.00
76358;BME280;65185;21.060;105.826;2023-04-01T05:38:33;101022.34;;;21.15;100.00
76358;BME280;65185;21.060;105.826;2023-04-01T05:41:02;101019.63;;;21.15;100.00
76358;BME280;65185;21.060;105.826;2023-04-01T05:43:29;101003.53;;;21.13;100.00
76358;BME280;65185;21.060;105.826;2023-04-01T05:45:56;100998.72;;;21.10;100.00
76358;BME280;65185;21.060;105.826;2023-04-01T05:48:23;100999.03;;;21.09;100.00
76358;BME280;65185;21.060;105.826;2023-04-01T05:50:49;100990.03;;;21.08;100.00
76358;BME280;65185;21.060;105.826;2023-04-01T05:53:15;100988.09;;;21.09;100.00
76358;BME280;65185;21.060;105.826;2023-04-01T05:55:42;100989.22;;;21.08;100.00
76358;BME280;65185;21.060;105.826;2023-04-01T05:58:08;100990.34;;;21.07;100.00
76358;BME280;65185;21.060;105.826;2023-04-01T06:00:35;100980.22;;;21.07;100.00
76358;BME280;65185;21.060;105.826;2023-04-01T06:03:01;100965.75;;;21.07;100.00
76358;BME280;65185;21.060;105.826;2023-04-01T06:05:30;100970.09;;;21.08;100.00
76358;BME280;65185;21.060;105.826;2023-04-01T06:08:12;100965.75;;;21.07;100.00
76358;BME280;65185;21.060;105.826;2023-04-01T06:13:48;100947.44;;;21.07;100.00
76358;BME280;65185;21.060;105.826;2023-04-01T06:34:04;100895.09;;;21.05;100.00
76358;BME280;65185;21.060;105.826;2023-04-01T06:38:47;100875.63;;;21.07;100.00
76358;BME280;65185;21.060;105.826;2023-04-01T06:43:59;100852.69;;;21.08;100.00
76358;BME280;65185;21.060;105.826;2023-04-01T06:49:38;100844.97;;;21.10;100.00
76358;BME280;65185;21.060;105.826;2023-04-01T06:55:23;100824.06;;;21.14;100.00
76358;BME280;65185;21.060;105.826;2023-04-01T06:57:58;100821.34;;;21.14;100.00
76358;BME280;65185;21.060;105.826;2023-04-01T07:00:30;100810.94;;;21.16;100.00
76358;BME280;65185;21.060;105.826;2023-04-01T07:03:00;100813.66;;;21.16;100.00
76358;BME280;65185;21.060;105.826;2023-04-01T07:05:31;100814.13;;;21.18;100.00
76358;BME280;65185;21.060;105.826;2023-04-01T07:08:03;100805.94;;;21.18;100.00
76358;BME280;65185;21.060;105.826;2023-04-01T07:13:58;100799.34;;;21.19;100.00
76358;BME280;65185;21.060;105.826;2023-04-01T07:16:43;100806.41;;;21.20;100.00
76358;BME280;65185;21.060;105.826;2023-04-01T07:19:24;100799.84;;;21.21;100.00
76358;BME280;65185;21.060;105.826;2023-04-01T07:21:56;100796.78;;;21.23;100.00
76358;BME280;65185;21.060;105.826;2023-04-01T07:24:27;100795.97;;;21.22;100.00
76358;BME280;65185;21.060;105.826;2023-04-01T07:26:57;100792.91;;;21.24;100.00
76358;BME280;65185;21.060;105.826;2023-04-01T07:29:25;100785.19;;;21.26;100.00
76358;BME280;65185;21.060;105.826;2023-04-01T07:32:21;100775.88;;;21.27;100.00
76358;BME280;65185;21.060;105.826;2023-04-01T07:38:11;100773.94;;;21.27;100.00
76358;BME280;65185;21.060;105.826;2023-04-01T07:40:48;100761.91;;;21.28;100.00
76358;BME280;65185;21.060;105.826;2023-04-01T07:46:29;100757.56;;;21.27;100.00
76358;BME280;65185;21.060;105.826;2023-04-01T08:05:27;100729.56;;;21.30;100.00
76358;BME280;65185;21.060;105.826;2023-04-01T08:08:25;100713.19;;;21.30;100.00
76358;BME280;65185;21.060;105.826;2023-04-01T08:10:57;100719.47;;;21.31;100.00
76358;BME280;65185;21.060;105.826;2023-04-01T08:16:36;100709.81;;;21.33;100.00
76358;BME280;65185;21.060;105.826;2023-04-01T08:19:18;100709.81;;;21.33;100.00
76358;BME280;65185;21.060;105.826;2023-04-01T08:21:52;100715.09;;;21.38;100.00
76358;BME280;65185;21.060;105.826;2023-04-01T08:24:54;100708.31;;;21.44;100.00
76358;BME280;65185;21.060;105.826;2023-04-01T08:27:37;100707.34;;;21.40;100.00
76358;BME280;65185;21.060;105.826;2023-04-01T08:33:13;100707.09;;;21.33;100.00
76358;BME280;65185;21.060;105.826;2023-04-01T08:36:05;100703.06;;;21.31;100.00
76358;BME280;65185;21.060;105.826;2023-04-01T08:38:40;100696.81;;;21.30;100.00
76358;BME280;65185;21.060;105.826;2023-04-01T08:50:07;100689.72;;;21.29;100.00
76358;BME280;65185;21.060;105.826;2023-04-01T09:09:58;100699.53;;;21.30;100.00
76358;BME280;65185;21.060;105.826;2023-04-01T09:13:05;100708.53;;;21.31;100.00
76358;BME280;65185;21.060;105.826;2023-04-01T09:23:38;100714.00;;;21.31;100.00
76358;BME280;65185;21.060;105.826;2023-04-01T09:26:34;100706.13;;;21.29;100.00
76358;BME280;65185;21.060;105.826;2023-04-01T09:29:20;100704.34;;;21.33;100.00
76358;BME280;65185;21.060;105.826;2023-04-01T09:57:21;100736.00;;;21.34;100.00
76358;BME280;65185;21.060;105.826;2023-04-01T10:03:13;100739.53;;;21.35;100.00
76358;BME280;65185;21.060;105.826;2023-04-01T10:06:17;100736.34;;;21.33;100.00
76358;BME280;65185;21.060;105.826;2023-04-01T10:15:24;100749.19;;;21.32;100.00
76358;BME280;65185;21.060;105.826;2023-04-01T10:26:58;100732.00;;;21.32;100.00
76358;BME280;65185;21.060;105.826;2023-04-01T10:35:29;100745.34;;;21.33;100.00
76358;BME280;65185;21.060;105.826;2023-04-01T10:45:57;100763.16;;;21.31;100.00
76358;BME280;65185;21.060;105.826;2023-04-01T10:54:32;100760.75;;;21.29;100.00
76358;BME280;65185;21.060;105.826;2023-04-01T11:05:56;100765.75;;;21.27;100.00
76358;BME280;65185;21.060;105.826;2023-04-01T11:08:47;100764.16;;;21.26;100.00
76358;BME280;65185;21.060;105.826;2023-04-01T11:17:52;100785.50;;;21.24;100.00
76358;BME280;65185;21.060;105.826;2023-04-01T11:37:25;100799.53;;;21.23;100.00
76358;BME280;65185;21.060;105.826;2023-04-01T11:40:28;100805.78;;;21.23;100.00
76358;BME280;65185;21.060;105.826;2023-04-01T11:43:16;100803.84;;;21.24;100.00
76358;BME280;65185;21.060;105.826;2023-04-01T12:05:28;100811.25;;;21.23;100.00
76358;BME280;65185;21.060;105.826;2023-04-01T12:08:13;100812.38;;;21.22;100.00
76358;BME280;65185;21.060;105.826;2023-04-01T12:13:59;100821.69;;;21.21;100.00
76358;BME280;65185;21.060;105.826;2023-04-01T12:19:48;100822.81;;;21.20;100.00
76358;BME280;65185;21.060;105.826;2023-04-01T12:25:22;100834.53;;;21.21;100.00
76358;BME280;65185;21.060;105.826;2023-04-01T12:36:52;101126.22;;;21.01;100.00
76358;BME280;65185;21.060;105.826;2023-04-01T12:39:33;101158.81;;;20.98;100.00
76358;BME280;65185;21.060;105.826;2023-04-01T12:45:31;101212.31;;;20.99;100.00
76358;BME280;65185;21.060;105.826;2023-04-01T12:53:54;101243.16;;;20.99;100.00
76358;BME280;65185;21.060;105.826;2023-04-01T13:07:52;101282.69;;;21.02;100.00
76358;BME280;65185;21.060;105.826;2023-04-01T13:18:21;101218.47;;;21.04;100.00
76358;BME280;65185;21.060;105.826;2023-04-01T13:24:00;101258.31;;;21.05;100.00
76358;BME280;65185;21.060;105.826;2023-04-01T13:29:20;101269.53;;;21.04;100.00
76358;BME280;65185;21.060;105.826;2023-04-01T13:45:48;101298.94;;;21.07;100.00
76358;BME280;65185;21.060;105.826;2023-04-01T13:51:31;101306.81;;;21.08;100.00
76358;BME280;65185;21.060;105.826;2023-04-01T13:57:52;101298.34;;;21.10;100.00
76358;BME280;65185;21.060;105.826;2023-04-01T14:09:24;101295.09;;;21.08;100.00
76358;BME280;65185;21.060;105.826;2023-04-01T14:23:02;101299.94;;;21.11;100.00
76358;BME280;65185;21.060;105.826;2023-04-01T14:25:46;101303.50;;;21.11;100.00
76358;BME280;65185;21.060;105.826;2023-04-01T14:31:13;101316.53;;;21.14;100.00
76358;BME280;65185;21.060;105.826;2023-04-01T14:55:53;101306.94;;;21.17;100.00
76358;BME280;65185;21.060;105.826;2023-04-01T14:58:23;101301.63;;;21.21;100.00
76358;BME280;65185;21.060;105.826;2023-04-01T15:06:35;101284.44;;;21.20;100.00
76358;BME280;65185;21.060;105.826;2023-04-01T15:14:33;101262.41;;;21.17;100.00
76358;BME280;65185;21.060;105.826;2023-04-01T15:20:08;101241.69;;;21.15;100.00
76358;BME280;65185;21.060;105.826;2023-04-01T15:23:13;101244.41;;;21.15;100.00
76358;BME280;65185;21.060;105.826;2023-04-01T15:26:17;101239.75;;;21.16;100.00
76358;BME280;65185;21.060;105.826;2023-04-01T15:42:39;101195.53;;;21.14;100.00
76358;BME280;65185;21.060;105.826;2023-04-01T15:45:17;101199.09;;;21.14;100.00
76358;BME280;65185;21.060;105.826;2023-04-01T15:51:01;101175.81;;;21.17;100.00
76358;BME280;65185;21.060;105.826;2023-04-01T15:53:35;101175.81;;;21.17;100.00
76358;BME280;65185;21.060;105.826;2023-04-01T15:56:24;101173.91;;;21.18;100.00
76358;BME280;65185;21.060;105.826;2023-04-01T16:04:48;101176.28;;;21.19;100.00
76358;BME280;65185;21.060;105.826;2023-04-01T16:10:08;101166.97;;;21.20;100.00
76358;BME280;65185;21.060;105.826;2023-04-01T16:12:40;101177.28;;;21.23;100.00
76358;BME280;65185;21.060;105.826;2023-04-01T16:15:24;101171.00;;;21.23;100.00
76358;BME280;65185;21.060;105.826;2023-04-01T16:20:55;101173.59;;;21.28;100.00
76358;BME280;65185;21.060;105.826;2023-04-01T16:37:33;67626.38;;;-142.84;100.00
76358;BME280;65185;21.060;105.826;2023-04-01T16:48:13;67626.38;;;-142.84;100.00
76358;BME280;65185;21.060;105.826;2023-04-01T16:51:03;67626.38;;;-142.84;100.00
76358;BME280;65185;21.060;105.826;2023-04-01T16:53:47;67626.38;;;-142.84;100.00
76358;BME280;65185;21.060;105.826;2023-04-01T16:56:36;67626.38;;;-142.84;100.00
76358;BME280;65185;21.060;105.826;2023-04-01T16:59:14;67626.38;;;-142.84;100.00
76358;BME280;65185;21.060;105.826;2023-04-01T17:13:03;67626.38;;;-142.84;100.00
76358;BME280;65185;21.060;105.826;2023-04-01T17:17:45;67626.38;;;-142.84;100.00
76358;BME280;65185;21.060;105.826;2023-04-01T17:20:35;67626.38;;;-142.84;100.00
76358;BME280;65185;21.060;105.826;2023-04-01T17:26:07;67626.38;;;-142.84;100.00
76358;BME280;65185;21.060;105.826;2023-04-01T17:28:45;67626.38;;;-142.84;100.00
76358;BME280;65185;21.060;105.826;2023-04-01T17:37:22;67626.38;;;-142.84;100.00
76358;BME280;65185;21.060;105.826;2023-04-01T17:42:47;67626.38;;;-142.84;100.00
76358;BME280;65185;21.060;105.826;2023-04-01T17:45:24;67626.38;;;-142.84;100.00
76358;BME280;65185;21.060;105.826;2023-04-01T17:51:09;67626.38;;;-142.84;100.00
76358;BME280;65185;21.060;105.826;2023-04-01T17:54:11;67626.38;;;-142.84;100.00
76358;BME280;65185;21.060;105.826;2023-04-01T18:05:50;67626.38;;;-142.84;100.00
76358;BME280;65185;21.060;105.826;2023-04-01T18:08:55;67626.38;;;-142.84;100.00
76358;BME280;65185;21.060;105.826;2023-04-01T18:17:41;67626.38;;;-142.84;100.00
76358;BME280;65185;21.060;105.826;2023-04-01T18:20:36;67626.38;;;-142.84;100.00
76358;BME280;65185;21.060;105.826;2023-04-01T18:28:56;67626.38;;;-142.84;100.00
76358;BME280;65185;21.060;105.826;2023-04-01T18:31:34;67626.38;;;-142.84;100.00
76358;BME280;65185;21.060;105.826;2023-04-01T18:37:13;67626.38;;;-142.84;100.00
76358;BME280;65185;21.060;105.826;2023-04-01T18:39:45;67626.38;;;-142.84;100.00
76358;BME280;65185;21.060;105.826;2023-04-01T18:42:19;67626.38;;;-142.84;100.00
76358;BME280;65185;21.060;105.826;2023-04-01T18:47:44;67626.38;;;-142.84;100.00
76358;BME280;65185;21.060;105.826;2023-04-01T18:55:56;67626.38;;;-142.84;100.00
76358;BME280;65185;21.060;105.826;2023-04-01T18:58:34;67626.38;;;-142.84;100.00
76358;BME280;65185;21.060;105.826;2023-04-01T19:06:55;67626.38;;;-142.84;100.00
76358;BME280;65185;21.060;105.826;2023-04-01T19:12:24;67626.38;;;-142.84;100.00
76358;BME280;65185;21.060;105.826;2023-04-01T19:26:11;67626.38;;;-142.84;100.00
76358;BME280;65185;21.060;105.826;2023-04-01T19:34:17;67626.38;;;-142.84;100.00
76358;BME280;65185;21.060;105.826;2023-04-01T19:36:50;67626.38;;;-142.84;100.00
76358;BME280;65185;21.060;105.826;2023-04-01T19:42:03;67626.38;;;-142.84;100.00
76358;BME280;65185;21.060;105.826;2023-04-01T19:44:58;67626.38;;;-142.84;100.00
76358;BME280;65185;21.060;105.826;2023-04-01T19:56:47;67626.38;;;-142.84;100.00
76358;BME280;65185;21.060;105.826;2023-04-01T20:07:32;67626.38;;;-142.84;100.00
76358;BME280;65185;21.060;105.826;2023-04-01T20:10:14;67626.38;;;-142.84;100.00
76358;BME280;65185;21.060;105.826;2023-04-01T20:15:44;67626.38;;;-142.84;100.00
76358;BME280;65185;21.060;105.826;2023-04-01T20:23:59;67626.38;;;-142.84;100.00
76358;BME280;65185;21.060;105.826;2023-04-01T20:26:36;67626.38;;;-142.84;100.00
76358;BME280;65185;21.060;105.826;2023-04-01T20:29:22;67626.38;;;-142.84;100.00
76358;BME280;65185;21.060;105.826;2023-04-01T20:32:18;67626.38;;;-142.84;100.00
76358;BME280;65185;21.060;105.826;2023-04-01T20:37:48;67626.38;;;-142.84;100.00
76358;BME280;65185;21.060;105.826;2023-04-01T20:51:13;67626.38;;;-142.84;100.00
76358;BME280;65185;21.060;105.826;2023-04-01T20:53:51;67626.38;;;-142.84;100.00
76358;BME280;65185;21.060;105.826;2023-04-01T20:56:50;67626.38;;;-142.84;100.00
76358;BME280;65185;21.060;105.826;2023-04-01T21:08:26;67626.38;;;-142.84;100.00
76358;BME280;65185;21.060;105.826;2023-04-01T21:16:33;67626.38;;;-142.84;100.00
76358;BME280;65185;21.060;105.826;2023-04-01T21:37:18;67626.38;;;-142.84;100.00
76358;BME280;65185;21.060;105.826;2023-04-01T21:40:03;67626.38;;;-142.84;100.00
76358;BME280;65185;21.060;105.826;2023-04-01T21:42:50;67626.38;;;-142.84;100.00
76358;BME280;65185;21.060;105.826;2023-04-01T21:45:46;67626.38;;;-142.84;100.00
76358;BME280;65185;21.060;105.826;2023-04-01T21:53:56;67626.38;;;-142.84;100.00
76358;BME280;65185;21.060;105.826;2023-04-01T21:57:08;67626.38;;;-142.84;100.00
76358;BME280;65185;21.060;105.826;2023-04-01T22:10:59;67626.38;;;-142.84;100.00
76358;BME280;65185;21.060;105.826;2023-04-01T22:14:18;67626.38;;;-142.84;100.00
76358;BME280;65185;21.060;105.826;2023-04-01T22:16:58;67626.38;;;-142.84;100.00
76358;BME280;65185;21.060;105.826;2023-04-01T22:41:31;67626.38;;;-142.84;100.00
76358;BME280;65185;21.060;105.826;2023-04-01T22:44:01;67626.38;;;-142.84;100.00
76358;BME280;65185;21.060;105.826;2023-04-01T22:46:46;67626.38;;;-142.84;100.00
76358;BME280;65185;21.060;105.826;2023-04-01T22:52:43;67626.38;;;-142.84;100.00
76358;BME280;65185;21.060;105.826;2023-04-01T22:55:24;67626.38;;;-142.84;100.00
76358;BME280;65185;21.060;105.826;2023-04-01T22:58:07;67626.38;;;-142.84;100.00
76358;BME280;65185;21.060;105.826;2023-04-01T23:00:40;67626.38;;;-142.84;100.00
76358;BME280;65185;21.060;105.826;2023-04-01T23:03:19;67626.38;;;-142.84;100.00
76358;BME280;65185;21.060;105.826;2023-04-01T23:05:57;67626.38;;;-142.84;100.00
76358;BME280;65185;21.060;105.826;2023-04-01T23:11:28;67626.38;;;-142.84;100.00
76358;BME280;65185;21.060;105.826;2023-04-01T23:33:11;67626.38;;;-142.84;100.00
76358;BME280;65185;21.060;105.826;2023-04-01T23:38:41;67626.38;;;-142.84;100.00
76358;BME280;65185;21.060;105.826;2023-04-01T23:41:16;67626.38;;;-142.84;100.00
76358;BME280;65185;21.060;105.826;2023-04-01T23:43:45;67626.38;;;-142.84;100.00
76358;BME280;65185;21.060;105.826;2023-04-01T23:46:17;67626.38;;;-142.84;100.00
76358;BME280;65185;21.060;105.826;2023-04-01T23:48:44;67626.38;;;-142.84;100.00
76358;BME280;65185;21.060;105.826;2023-04-01T23:51:29;67626.38;;;-142.84;100.00